sensor_id;sensor_type;location;lat;lon;timestamp;temperature;humidity
1075;DHT22;526;51.392;12.448;2023-05-06T00:00:33;14.20;97.30
1075;DHT22;526;51.392;12.448;2023-05-06T00:02:58;14.20;97.30
1075;DHT22;526;51.392;12.448;2023-05-06T00:05:27;14.10;97.30
1075;DHT22;526;51.392;12.448;2023-05-06T00:07:52;14.10;97.30
1075;DHT22;526;51.392;12.448;2023-05-06T00:10:18;14.10;97.30
1075;DHT22;526;51.392;12.448;2023-05-06T00:12:44;14.10;97.30
1075;DHT22;526;51.392;12.448;2023-05-06T00:15:10;14.10;97.30
1075;DHT22;526;51.392;12.448;2023-05-06T00:17:35;14.10;97.30
1075;DHT22;526;51.392;12.448;2023-05-06T00:20:01;14.10;97.30
1075;DHT22;526;51.392;12.448;2023-05-06T00:22:27;14.00;97.30
1075;DHT22;526;51.392;12.448;2023-05-06T00:24:53;14.00;97.30
1075;DHT22;526;51.392;12.448;2023-05-06T00:27:18;14.00;97.30
1075;DHT22;526;51.392;12.448;2023-05-06T00:29:44;14.00;97.30
1075;DHT22;526;51.392;12.448;2023-05-06T00:32:10;14.10;97.30
1075;DHT22;526;51.392;12.448;2023-05-06T00:34:35;14.10;97.30
1075;DHT22;526;51.392;12.448;2023-05-06T00:37:01;14.10;97.30
1075;DHT22;526;51.392;12.448;2023-05-06T00:39:28;14.10;97.30
1075;DHT22;526;51.392;12.448;2023-05-06T00:41:58;14.10;97.30
1075;DHT22;526;51.392;12.448;2023-05-06T00:44:24;14.10;97.30
1075;DHT22;526;51.392;12.448;2023-05-06T00:46:49;14.10;97.30
1075;DHT22;526;51.392;12.448;2023-05-06T00:49:15;14.10;97.30
1075;DHT22;526;51.392;12.448;2023-05-06T00:51:40;14.10;97.30
1075;DHT22;526;51.392;12.448;2023-05-06T00:54:06;14.00;97.30
1075;DHT22;526;51.392;12.448;2023-05-06T00:56:31;14.00;97.30
1075;DHT22;526;51.392;12.448;2023-05-06T00:58:57;14.00;97.30
1075;DHT22;526;51.392;12.448;2023-05-06T01:01:23;14.00;97.30
1075;DHT22;526;51.392;12.448;2023-05-06T01:03:49;14.00;97.30
1075;DHT22;526;51.392;12.448;2023-05-06T01:06:44;14.00;97.30
1075;DHT22;526;51.392;12.448;2023-05-06T01:09:23;14.00;97.30
1075;DHT22;526;51.392;12.448;2023-05-06T01:11:58;14.00;97.30
1075;DHT22;526;51.392;12.448;2023-05-06T01:14:54;14.00;97.30
1075;DHT22;526;51.392;12.448;2023-05-06T01:17:23;13.90;97.30
1075;DHT22;526;51.392;12.448;2023-05-06T01:19:51;14.00;97.30
1075;DHT22;526;51.392;12.448;2023-05-06T01:22:22;14.00;97.30
1075;DHT22;526;51.392;12.448;2023-05-06T01:24:49;14.00;97.30
1075;DHT22;526;51.392;12.448;2023-05-06T01:27:14;14.00;97.30
1075;DHT22;526;51.392;12.448;2023-05-06T01:29:42;14.00;97.30
1075;DHT22;526;51.392;12.448;2023-05-06T01:37:44;14.00;97.30
1075;DHT22;526;51.392;12.448;2023-05-06T01:40:11;14.00;97.30
1075;DHT22;526;51.392;12.448;2023-05-06T01:42:39;13.90;97.30
1075;DHT22;526;51.392;12.448;2023-05-06T01:45:06;13.90;97.30
1075;DHT22;526;51.392;12.448;2023-05-06T01:47:32;13.90;97.30
1075;DHT22;526;51.392;12.448;2023-05-06T01:49:58;13.90;97.30
1075;DHT22;526;51.392;12.448;2023-05-06T01:52:25;13.80;97.30
1075;DHT22;526;51.392;12.448;2023-05-06T01:54:50;13.80;97.30
1075;DHT22;526;51.392;12.448;2023-05-06T01:57:16;13.80;97.30
1075;DHT22;526;51.392;12.448;2023-05-06T01:59:41;13.80;97.30
1075;DHT22;526;51.392;12.448;2023-05-06T02:02:07;13.70;97.30
1075;DHT22;526;51.392;12.448;2023-05-06T02:04:32;13.70;97.30
1075;DHT22;526;51.392;12.448;2023-05-06T02:06:58;13.70;97.30
1075;DHT22;526;51.392;12.448;2023-05-06T02:09:23;13.70;97.30
1075;DHT22;526;51.392;12.448;2023-05-06T02:11:49;13.70;97.30
1075;DHT22;526;51.392;12.448;2023-05-06T02:14:14;13.70;97.30
1075;DHT22;526;51.392;12.448;2023-05-06T02:16:40;13.60;97.30
1075;DHT22;526;51.392;12.448;2023-05-06T02:19:05;13.60;97.30
1075;DHT22;526;51.392;12.448;2023-05-06T02:21:31;13.60;97.30
1075;DHT22;526;51.392;12.448;2023-05-06T02:23:57;13.50;97.30
1075;DHT22;526;51.392;12.448;2023-05-06T02:26:23;13.50;97.30
1075;DHT22;526;51.392;12.448;2023-05-06T02:28:48;13.50;97.30
1075;DHT22;526;51.392;12.448;2023-05-06T02:31:14;13.50;97.30
1075;DHT22;526;51.392;12.448;2023-05-06T02:33:40;13.50;97.30
1075;DHT22;526;51.392;12.448;2023-05-06T02:36:06;13.40;97.30
1075;DHT22;526;51.392;12.448;2023-05-06T02:38:31;13.40;97.30
1075;DHT22;526;51.392;12.448;2023-05-06T02:40:56;13.40;97.30
1075;DHT22;526;51.392;12.448;2023-05-06T02:43:22;13.30;97.30
1075;DHT22;526;51.392;12.448;2023-05-06T02:45:47;13.30;97.30
1075;DHT22;526;51.392;12.448;2023-05-06T02:48:13;13.20;97.30
1075;DHT22;526;51.392;12.448;2023-05-06T02:50:38;13.20;97.30
1075;DHT22;526;51.392;12.448;2023-05-06T02:53:04;13.20;97.30
1075;DHT22;526;51.392;12.448;2023-05-06T02:55:29;13.20;97.30
1075;DHT22;526;51.392;12.448;2023-05-06T02:57:58;13.20;97.30
1075;DHT22;526;51.392;12.448;2023-05-06T03:00:24;13.10;97.30
1075;DHT22;526;51.392;12.448;2023-05-06T03:02:49;13.10;97.30
1075;DHT22;526;51.392;12.448;2023-05-06T03:05:15;13.10;97.30
1075;DHT22;526;51.392;12.448;2023-05-06T03:07:40;13.10;97.30
1075;DHT22;526;51.392;12.448;2023-05-06T03:10:06;13.10;97.30
1075;DHT22;526;51.392;12.448;2023-05-06T03:12:31;13.10;97.30
1075;DHT22;526;51.392;12.448;2023-05-06T03:14:57;13.10;97.30
1075;DHT22;526;51.392;12.448;2023-05-06T03:17:22;13.10;97.30
1075;DHT22;526;51.392;12.448;2023-05-06T03:19:49;13.10;97.30
1075;DHT22;526;51.392;12.448;2023-05-06T03:22:14;13.10;97.30
1075;DHT22;526;51.392;12.448;2023-05-06T03:24:40;13.10;97.30
1075;DHT22;526;51.392;12.448;2023-05-06T03:27:05;13.20;97.30
1075;DHT22;526;51.392;12.448;2023-05-06T03:29:31;13.20;97.30
1075;DHT22;526;51.392;12.448;2023-05-06T03:31:56;13.20;97.30
1075;DHT22;526;51.392;12.448;2023-05-06T03:34:22;13.20;97.30
1075;DHT22;526;51.392;12.448;2023-05-06T03:36:47;13.30;97.30
1075;DHT22;526;51.392;12.448;2023-05-06T03:39:13;13.30;97.30
1075;DHT22;526;51.392;12.448;2023-05-06T03:41:38;13.30;97.30
1075;DHT22;526;51.392;12.448;2023-05-06T03:44:04;13.30;97.30
1075;DHT22;526;51.392;12.448;2023-05-06T03:46:29;13.30;97.30
1075;DHT22;526;51.392;12.448;2023-05-06T03:48:55;13.30;97.30
1075;DHT22;526;51.392;12.448;2023-05-06T03:51:21;13.30;97.30
1075;DHT22;526;51.392;12.448;2023-05-06T03:53:46;13.20;97.30
1075;DHT22;526;51.392;12.448;2023-05-06T03:56:12;13.20;97.30
1075;DHT22;526;51.392;12.448;2023-05-06T03:58:37;13.10;97.30
1075;DHT22;526;51.392;12.448;2023-05-06T04:01:03;13.00;97.30
1075;DHT22;526;51.392;12.448;2023-05-06T04:03:29;13.00;97.30
1075;DHT22;526;51.392;12.448;2023-05-06T04:05:54;13.00;97.30
1075;DHT22;526;51.392;12.448;2023-05-06T04:08:20;13.00;97.30
1075;DHT22;526;51.392;12.448;2023-05-06T04:10:45;13.00;97.30
1075;DHT22;526;51.392;12.448;2023-05-06T04:13:11;12.90;97.30
1075;DHT22;526;51.392;12.448;2023-05-06T04:15:36;12.90;97.30
1075;DHT22;526;51.392;12.448;2023-05-06T04:18:04;12.80;97.30
1075;DHT22;526;51.392;12.448;2023-05-06T04:20:30;12.80;97.30
1075;DHT22;526;51.392;12.448;2023-05-06T04:22:55;12.70;97.30
1075;DHT22;526;51.392;12.448;2023-05-06T04:25:21;12.70;97.30
1075;DHT22;526;51.392;12.448;2023-05-06T04:27:47;12.70;97.30
1075;DHT22;526;51.392;12.448;2023-05-06T04:30:13;12.80;97.30
1075;DHT22;526;51.392;12.448;2023-05-06T04:32:38;12.80;97.30
1075;DHT22;526;51.392;12.448;2023-05-06T04:35:05;12.80;97.30
1075;DHT22;526;51.392;12.448;2023-05-06T04:37:31;12.80;97.30
1075;DHT22;526;51.392;12.448;2023-05-06T04:39:56;12.80;97.30
1075;DHT22;526;51.392;12.448;2023-05-06T04:42:22;12.80;97.30
1075;DHT22;526;51.392;12.448;2023-05-06T04:44:48;12.90;97.30
1075;DHT22;526;51.392;12.448;2023-05-06T04:47:14;12.80;97.30
1075;DHT22;526;51.392;12.448;2023-05-06T04:49:40;12.70;97.30
1075;DHT22;526;51.392;12.448;2023-05-06T04:52:06;12.70;97.30
1075;DHT22;526;51.392;12.448;2023-05-06T04:54:31;12.70;97.30
1075;DHT22;526;51.392;12.448;2023-05-06T04:56:57;12.70;97.30
1075;DHT22;526;51.392;12.448;2023-05-06T04:59:22;12.70;97.30
1075;DHT22;526;51.392;12.448;2023-05-06T05:01:48;12.80;97.30
1075;DHT22;526;51.392;12.448;2023-05-06T05:04:13;12.80;97.30
1075;DHT22;526;51.392;12.448;2023-05-06T05:06:39;12.70;97.30
1075;DHT22;526;51.392;12.448;2023-05-06T05:09:04;12.70;97.30
1075;DHT22;526;51.392;12.448;2023-05-06T05:11:30;12.70;97.30
1075;DHT22;526;51.392;12.448;2023-05-06T05:13:56;12.80;97.30
1075;DHT22;526;51.392;12.448;2023-05-06T05:16:21;12.80;97.30
1075;DHT22;526;51.392;12.448;2023-05-06T05:18:47;12.80;97.30
1075;DHT22;526;51.392;12.448;2023-05-06T05:21:12;12.80;97.30
1075;DHT22;526;51.392;12.448;2023-05-06T05:23:38;12.90;97.30
1075;DHT22;526;51.392;12.448;2023-05-06T05:26:03;12.90;97.30
1075;DHT22;526;51.392;12.448;2023-05-06T05:28:29;12.90;97.30
1075;DHT22;526;51.392;12.448;2023-05-06T05:31:00;13.00;97.30
1075;DHT22;526;51.392;12.448;2023-05-06T05:33:26;13.00;97.30
1075;DHT22;526;51.392;12.448;2023-05-06T05:35:52;13.00;97.30
1075;DHT22;526;51.392;12.448;2023-05-06T05:38:17;13.10;97.30
1075;DHT22;526;51.392;12.448;2023-05-06T05:40:43;13.10;97.30
1075;DHT22;526;51.392;12.448;2023-05-06T05:43:08;13.20;97.30
1075;DHT22;526;51.392;12.448;2023-05-06T05:45:36;13.20;97.30
1075;DHT22;526;51.392;12.448;2023-05-06T05:48:01;13.10;97.30
1075;DHT22;526;51.392;12.448;2023-05-06T05:50:28;13.20;97.30
1075;DHT22;526;51.392;12.448;2023-05-06T05:52:54;13.20;97.30
1075;DHT22;526;51.392;12.448;2023-05-06T05:55:20;13.30;97.30
1075;DHT22;526;51.392;12.448;2023-05-06T05:57:45;13.30;97.30
1075;DHT22;526;51.392;12.448;2023-05-06T06:00:11;13.40;97.30
1075;DHT22;526;51.392;12.448;2023-05-06T06:02:37;13.40;97.30
1075;DHT22;526;51.392;12.448;2023-05-06T06:05:03;13.40;97.30
1075;DHT22;526;51.392;12.448;2023-05-06T06:07:28;13.30;97.30
1075;DHT22;526;51.392;12.448;2023-05-06T06:09:54;13.30;97.30
1075;DHT22;526;51.392;12.448;2023-05-06T06:12:20;13.20;97.30
1075;DHT22;526;51.392;12.448;2023-05-06T06:14:45;13.20;97.30
1075;DHT22;526;51.392;12.448;2023-05-06T06:17:13;13.20;97.30
1075;DHT22;526;51.392;12.448;2023-05-06T06:19:39;13.20;97.30
1075;DHT22;526;51.392;12.448;2023-05-06T06:22:04;13.30;97.30
1075;DHT22;526;51.392;12.448;2023-05-06T06:24:30;13.40;97.30
1075;DHT22;526;51.392;12.448;2023-05-06T06:27:01;13.60;97.30
1075;DHT22;526;51.392;12.448;2023-05-06T06:29:27;13.70;97.30
1075;DHT22;526;51.392;12.448;2023-05-06T06:31:52;13.90;97.30
1075;DHT22;526;51.392;12.448;2023-05-06T06:34:20;14.00;97.30
1075;DHT22;526;51.392;12.448;2023-05-06T06:36:46;14.00;97.30
1075;DHT22;526;51.392;12.448;2023-05-06T06:39:12;13.90;97.30
1075;DHT22;526;51.392;12.448;2023-05-06T06:41:37;13.80;97.30
1075;DHT22;526;51.392;12.448;2023-05-06T06:44:03;13.80;97.30
1075;DHT22;526;51.392;12.448;2023-05-06T06:46:29;13.80;97.30
1075;DHT22;526;51.392;12.448;2023-05-06T06:48:55;13.90;97.30
1075;DHT22;526;51.392;12.448;2023-05-06T06:51:20;13.90;97.30
1075;DHT22;526;51.392;12.448;2023-05-06T06:53:46;13.90;97.30
1075;DHT22;526;51.392;12.448;2023-05-06T06:56:13;13.90;97.30
1075;DHT22;526;51.392;12.448;2023-05-06T06:58:40;13.90;97.30
1075;DHT22;526;51.392;12.448;2023-05-06T07:01:05;13.90;97.30
1075;DHT22;526;51.392;12.448;2023-05-06T07:03:31;13.90;97.30
1075;DHT22;526;51.392;12.448;2023-05-06T07:05:56;13.90;97.30
1075;DHT22;526;51.392;12.448;2023-05-06T07:08:22;13.90;97.30
1075;DHT22;526;51.392;12.448;2023-05-06T07:10:47;13.90;97.30
1075;DHT22;526;51.392;12.448;2023-05-06T07:13:13;13.80;97.30
1075;DHT22;526;51.392;12.448;2023-05-06T07:15:39;13.80;97.30
1075;DHT22;526;51.392;12.448;2023-05-06T07:18:05;13.80;97.30
1075;DHT22;526;51.392;12.448;2023-05-06T07:20:30;13.80;97.30
1075;DHT22;526;51.392;12.448;2023-05-06T07:22:56;13.70;97.30
1075;DHT22;526;51.392;12.448;2023-05-06T07:25:21;13.70;97.30
1075;DHT22;526;51.392;12.448;2023-05-06T07:27:47;13.70;97.30
1075;DHT22;526;51.392;12.448;2023-05-06T07:30:12;13.70;97.30
1075;DHT22;526;51.392;12.448;2023-05-06T07:32:38;13.70;97.30
1075;DHT22;526;51.392;12.448;2023-05-06T07:35:05;13.70;97.30
1075;DHT22;526;51.392;12.448;2023-05-06T07:37:31;13.80;97.30
1075;DHT22;526;51.392;12.448;2023-05-06T07:39:57;13.90;97.30
1075;DHT22;526;51.392;12.448;2023-05-06T07:42:22;14.00;97.30
1075;DHT22;526;51.392;12.448;2023-05-06T07:44:48;14.00;97.30
1075;DHT22;526;51.392;12.448;2023-05-06T07:47:24;14.00;97.30
1075;DHT22;526;51.392;12.448;2023-05-06T07:49:50;14.00;97.30
1075;DHT22;526;51.392;12.448;2023-05-06T07:52:15;14.00;97.30
1075;DHT22;526;51.392;12.448;2023-05-06T07:54:41;14.00;97.30
1075;DHT22;526;51.392;12.448;2023-05-06T07:57:06;14.00;97.30
1075;DHT22;526;51.392;12.448;2023-05-06T07:59:32;14.00;97.30
1075;DHT22;526;51.392;12.448;2023-05-06T08:01:57;14.00;97.30
1075;DHT22;526;51.392;12.448;2023-05-06T08:04:23;13.90;97.30
1075;DHT22;526;51.392;12.448;2023-05-06T08:06:48;13.90;97.30
1075;DHT22;526;51.392;12.448;2023-05-06T08:09:14;13.80;97.30
1075;DHT22;526;51.392;12.448;2023-05-06T08:11:39;13.80;97.30
1075;DHT22;526;51.392;12.448;2023-05-06T08:14:05;13.70;97.30
1075;DHT22;526;51.392;12.448;2023-05-06T08:16:30;13.70;97.30
1075;DHT22;526;51.392;12.448;2023-05-06T08:18:56;13.70;97.30
1075;DHT22;526;51.392;12.448;2023-05-06T08:21:21;13.70;97.30
1075;DHT22;526;51.392;12.448;2023-05-06T08:23:46;13.70;97.30
1075;DHT22;526;51.392;12.448;2023-05-06T08:26:12;13.80;97.30
1075;DHT22;526;51.392;12.448;2023-05-06T08:28:37;13.90;97.30
1075;DHT22;526;51.392;12.448;2023-05-06T08:31:03;14.00;97.30
1075;DHT22;526;51.392;12.448;2023-05-06T08:33:28;14.10;97.30
1075;DHT22;526;51.392;12.448;2023-05-06T08:35:57;14.20;97.30
1075;DHT22;526;51.392;12.448;2023-05-06T08:38:23;14.20;97.30
1075;DHT22;526;51.392;12.448;2023-05-06T08:40:51;14.30;97.30
1075;DHT22;526;51.392;12.448;2023-05-06T08:43:19;14.40;97.30
1075;DHT22;526;51.392;12.448;2023-05-06T08:45:45;14.60;97.30
1075;DHT22;526;51.392;12.448;2023-05-06T08:48:11;14.70;97.30
1075;DHT22;526;51.392;12.448;2023-05-06T08:50:40;14.80;97.30
1075;DHT22;526;51.392;12.448;2023-05-06T08:53:13;14.80;97.30
1075;DHT22;526;51.392;12.448;2023-05-06T08:55:41;14.80;97.30
1075;DHT22;526;51.392;12.448;2023-05-06T08:58:07;14.70;97.30
1075;DHT22;526;51.392;12.448;2023-05-06T09:00:33;14.60;97.30
1075;DHT22;526;51.392;12.448;2023-05-06T09:02:59;14.60;97.30
1075;DHT22;526;51.392;12.448;2023-05-06T09:05:26;14.60;97.30
1075;DHT22;526;51.392;12.448;2023-05-06T09:07:52;14.60;97.30
1075;DHT22;526;51.392;12.448;2023-05-06T09:10:18;14.60;97.30
1075;DHT22;526;51.392;12.448;2023-05-06T09:12:43;14.60;97.30
1075;DHT22;526;51.392;12.448;2023-05-06T09:15:10;14.60;97.30
1075;DHT22;526;51.392;12.448;2023-05-06T09:17:35;14.50;97.30
1075;DHT22;526;51.392;12.448;2023-05-06T09:20:01;14.40;97.30
1075;DHT22;526;51.392;12.448;2023-05-06T09:22:28;14.50;97.30
1075;DHT22;526;51.392;12.448;2023-05-06T09:24:55;14.50;97.30
1075;DHT22;526;51.392;12.448;2023-05-06T09:27:23;14.60;97.30
1075;DHT22;526;51.392;12.448;2023-05-06T09:30:11;14.60;97.30
1075;DHT22;526;51.392;12.448;2023-05-06T09:32:37;14.80;97.30
1075;DHT22;526;51.392;12.448;2023-05-06T09:35:02;14.90;97.30
1075;DHT22;526;51.392;12.448;2023-05-06T09:37:28;15.00;97.30
1075;DHT22;526;51.392;12.448;2023-05-06T09:39:55;15.00;97.30
1075;DHT22;526;51.392;12.448;2023-05-06T09:42:26;15.00;97.30
1075;DHT22;526;51.392;12.448;2023-05-06T09:44:59;15.00;97.30
1075;DHT22;526;51.392;12.448;2023-05-06T09:47:26;15.00;97.30
1075;DHT22;526;51.392;12.448;2023-05-06T09:49:56;15.10;97.30
1075;DHT22;526;51.392;12.448;2023-05-06T09:52:22;15.20;97.30
1075;DHT22;526;51.392;12.448;2023-05-06T09:54:49;15.20;97.30
1075;DHT22;526;51.392;12.448;2023-05-06T09:57:16;15.20;97.30
1075;DHT22;526;51.392;12.448;2023-05-06T09:59:43;15.20;97.30
1075;DHT22;526;51.392;12.448;2023-05-06T10:02:11;15.20;97.30
1075;DHT22;526;51.392;12.448;2023-05-06T10:04:39;15.30;97.30
1075;DHT22;526;51.392;12.448;2023-05-06T10:07:10;15.40;97.30
1075;DHT22;526;51.392;12.448;2023-05-06T10:09:38;15.50;97.30
1075;DHT22;526;51.392;12.448;2023-05-06T10:12:06;15.70;97.30
1075;DHT22;526;51.392;12.448;2023-05-06T10:14:33;15.80;97.30
1075;DHT22;526;51.392;12.448;2023-05-06T10:16:59;15.80;97.30
1075;DHT22;526;51.392;12.448;2023-05-06T10:19:25;15.80;97.30
1075;DHT22;526;51.392;12.448;2023-05-06T10:22:04;15.80;97.30
1075;DHT22;526;51.392;12.448;2023-05-06T10:24:35;15.90;97.30
1075;DHT22;526;51.392;12.448;2023-05-06T10:27:01;16.00;97.30
1075;DHT22;526;51.392;12.448;2023-05-06T10:29:30;16.10;97.30
1075;DHT22;526;51.392;12.448;2023-05-06T10:32:01;16.10;97.30
1075;DHT22;526;51.392;12.448;2023-05-06T10:36:58;16.10;97.30
1075;DHT22;526;51.392;12.448;2023-05-06T10:39:25;16.20;97.30
1075;DHT22;526;51.392;12.448;2023-05-06T10:41:50;16.30;97.30
1075;DHT22;526;51.392;12.448;2023-05-06T10:44:16;16.50;97.30
1075;DHT22;526;51.392;12.448;2023-05-06T10:47:11;16.50;97.30
1075;DHT22;526;51.392;12.448;2023-05-06T10:49:36;16.70;97.30
1075;DHT22;526;51.392;12.448;2023-05-06T10:52:10;16.80;97.30
1075;DHT22;526;51.392;12.448;2023-05-06T10:54:47;16.80;97.30
1075;DHT22;526;51.392;12.448;2023-05-06T10:57:14;17.00;97.30
1075;DHT22;526;51.392;12.448;2023-05-06T10:59:44;17.00;97.30
1075;DHT22;526;51.392;12.448;2023-05-06T11:02:11;17.20;97.30
1075;DHT22;526;51.392;12.448;2023-05-06T11:04:37;17.40;97.30
1075;DHT22;526;51.392;12.448;2023-05-06T11:07:11;17.40;97.30
1075;DHT22;526;51.392;12.448;2023-05-06T11:09:57;17.40;97.30
1075;DHT22;526;51.392;12.448;2023-05-06T11:12:46;17.20;97.10
1075;DHT22;526;51.392;12.448;2023-05-06T11:15:19;16.90;97.30
1075;DHT22;526;51.392;12.448;2023-05-06T11:17:45;16.70;97.30
1075;DHT22;526;51.392;12.448;2023-05-06T11:20:18;16.60;97.30
1075;DHT22;526;51.392;12.448;2023-05-06T11:22:44;16.50;97.30
1075;DHT22;526;51.392;12.448;2023-05-06T11:25:10;16.50;97.30
1075;DHT22;526;51.392;12.448;2023-05-06T11:27:36;16.50;97.30
1075;DHT22;526;51.392;12.448;2023-05-06T11:30:02;16.50;97.30
1075;DHT22;526;51.392;12.448;2023-05-06T11:32:28;16.50;97.30
1075;DHT22;526;51.392;12.448;2023-05-06T11:34:57;16.50;97.30
1075;DHT22;526;51.392;12.448;2023-05-06T11:37:24;16.30;97.30
1075;DHT22;526;51.392;12.448;2023-05-06T11:39:50;16.30;97.30
1075;DHT22;526;51.392;12.448;2023-05-06T11:42:23;16.20;97.30
1075;DHT22;526;51.392;12.448;2023-05-06T11:44:51;16.00;97.30
1075;DHT22;526;51.392;12.448;2023-05-06T11:47:20;15.90;97.30
1075;DHT22;526;51.392;12.448;2023-05-06T11:49:52;16.00;97.30
1075;DHT22;526;51.392;12.448;2023-05-06T11:52:18;16.10;97.30
1075;DHT22;526;51.392;12.448;2023-05-06T11:54:49;16.30;97.30
1075;DHT22;526;51.392;12.448;2023-05-06T11:57:15;16.50;97.30
1075;DHT22;526;51.392;12.448;2023-05-06T11:59:40;16.70;97.30
1075;DHT22;526;51.392;12.448;2023-05-06T12:02:13;16.80;97.30
1075;DHT22;526;51.392;12.448;2023-05-06T12:04:43;17.00;97.30
1075;DHT22;526;51.392;12.448;2023-05-06T12:07:11;17.00;97.30
1075;DHT22;526;51.392;12.448;2023-05-06T12:09:40;16.80;97.30
1075;DHT22;526;51.392;12.448;2023-05-06T12:12:07;16.70;97.30
1075;DHT22;526;51.392;12.448;2023-05-06T12:14:34;16.70;97.30
1075;DHT22;526;51.392;12.448;2023-05-06T12:17:01;16.70;97.30
1075;DHT22;526;51.392;12.448;2023-05-06T12:19:28;16.70;97.30
1075;DHT22;526;51.392;12.448;2023-05-06T12:21:53;16.80;97.30
1075;DHT22;526;51.392;12.448;2023-05-06T12:24:28;16.90;97.30
1075;DHT22;526;51.392;12.448;2023-05-06T12:26:54;17.00;97.30
1075;DHT22;526;51.392;12.448;2023-05-06T12:29:20;17.00;97.30
1075;DHT22;526;51.392;12.448;2023-05-06T12:31:46;16.90;97.30
1075;DHT22;526;51.392;12.448;2023-05-06T12:34:13;17.00;97.30
1075;DHT22;526;51.392;12.448;2023-05-06T12:36:42;17.30;97.30
1075;DHT22;526;51.392;12.448;2023-05-06T12:39:08;17.70;97.30
1075;DHT22;526;51.392;12.448;2023-05-06T12:41:43;18.10;97.30
1075;DHT22;526;51.392;12.448;2023-05-06T12:44:29;18.60;96.60
1075;DHT22;526;51.392;12.448;2023-05-06T12:46:59;18.80;95.60
1075;DHT22;526;51.392;12.448;2023-05-06T12:49:24;18.90;95.20
1075;DHT22;526;51.392;12.448;2023-05-06T12:52:07;18.90;94.00
1075;DHT22;526;51.392;12.448;2023-05-06T12:54:33;18.70;94.10
1075;DHT22;526;51.392;12.448;2023-05-06T12:56:58;18.60;95.10
1075;DHT22;526;51.392;12.448;2023-05-06T12:59:24;18.70;94.70
1075;DHT22;526;51.392;12.448;2023-05-06T13:01:52;18.80;93.80
1075;DHT22;526;51.392;12.448;2023-05-06T13:04:18;19.00;94.60
1075;DHT22;526;51.392;12.448;2023-05-06T13:06:45;19.00;93.50
1075;DHT22;526;51.392;12.448;2023-05-06T13:09:10;18.80;94.50
1075;DHT22;526;51.392;12.448;2023-05-06T13:11:36;18.50;94.20
1075;DHT22;526;51.392;12.448;2023-05-06T13:14:01;18.60;95.10
1075;DHT22;526;51.392;12.448;2023-05-06T13:16:29;19.00;95.40
1075;DHT22;526;51.392;12.448;2023-05-06T13:18:55;19.10;93.00
1075;DHT22;526;51.392;12.448;2023-05-06T13:21:20;18.90;92.90
1075;DHT22;526;51.392;12.448;2023-05-06T13:23:46;18.70;93.50
1075;DHT22;526;51.392;12.448;2023-05-06T13:26:12;18.50;94.00
1075;DHT22;526;51.392;12.448;2023-05-06T13:28:38;18.70;95.80
1075;DHT22;526;51.392;12.448;2023-05-06T13:31:05;18.90;94.50
1075;DHT22;526;51.392;12.448;2023-05-06T13:33:31;18.80;93.10
1075;DHT22;526;51.392;12.448;2023-05-06T13:35:56;18.60;94.30
1075;DHT22;526;51.392;12.448;2023-05-06T13:38:22;18.30;94.50
1075;DHT22;526;51.392;12.448;2023-05-06T13:40:51;18.00;95.40
1075;DHT22;526;51.392;12.448;2023-05-06T13:43:21;17.70;96.00
1075;DHT22;526;51.392;12.448;2023-05-06T13:45:46;17.80;96.50
1075;DHT22;526;51.392;12.448;2023-05-06T13:48:12;18.10;96.60
1075;DHT22;526;51.392;12.448;2023-05-06T13:50:42;18.50;96.00
1075;DHT22;526;51.392;12.448;2023-05-06T13:53:08;18.50;95.40
1075;DHT22;526;51.392;12.448;2023-05-06T13:55:33;18.60;95.60
1075;DHT22;526;51.392;12.448;2023-05-06T13:57:59;18.60;94.50
1075;DHT22;526;51.392;12.448;2023-05-06T14:00:24;18.40;94.50
1075;DHT22;526;51.392;12.448;2023-05-06T14:02:50;18.30;95.00
1075;DHT22;526;51.392;12.448;2023-05-06T14:05:15;18.20;95.60
1075;DHT22;526;51.392;12.448;2023-05-06T14:07:41;18.30;95.50
1075;DHT22;526;51.392;12.448;2023-05-06T14:10:07;18.50;95.20
1075;DHT22;526;51.392;12.448;2023-05-06T14:12:33;18.60;95.20
1075;DHT22;526;51.392;12.448;2023-05-06T14:14:59;18.50;95.10
1075;DHT22;526;51.392;12.448;2023-05-06T14:17:25;18.40;94.70
1075;DHT22;526;51.392;12.448;2023-05-06T14:19:50;18.40;95.00
1075;DHT22;526;51.392;12.448;2023-05-06T14:22:16;18.60;94.90
1075;DHT22;526;51.392;12.448;2023-05-06T14:24:41;18.90;94.00
1075;DHT22;526;51.392;12.448;2023-05-06T14:27:07;19.20;94.00
1075;DHT22;526;51.392;12.448;2023-05-06T14:29:32;19.00;92.80
1075;DHT22;526;51.392;12.448;2023-05-06T14:31:58;18.90;93.80
1075;DHT22;526;51.392;12.448;2023-05-06T14:34:23;19.10;93.90
1075;DHT22;526;51.392;12.448;2023-05-06T14:36:49;19.40;92.20
1075;DHT22;526;51.392;12.448;2023-05-06T14:39:14;19.50;92.60
1075;DHT22;526;51.392;12.448;2023-05-06T14:41:40;19.70;92.30
1075;DHT22;526;51.392;12.448;2023-05-06T14:44:05;20.00;91.80
1075;DHT22;526;51.392;12.448;2023-05-06T14:46:31;20.10;89.50
1075;DHT22;526;51.392;12.448;2023-05-06T14:48:56;20.30;90.80
1075;DHT22;526;51.392;12.448;2023-05-06T14:51:22;20.40;90.20
1075;DHT22;526;51.392;12.448;2023-05-06T14:53:47;20.40;90.00
1075;DHT22;526;51.392;12.448;2023-05-06T14:56:14;20.40;89.80
1075;DHT22;526;51.392;12.448;2023-05-06T14:58:39;20.60;90.50
1075;DHT22;526;51.392;12.448;2023-05-06T15:01:05;20.80;90.30
1075;DHT22;526;51.392;12.448;2023-05-06T15:03:31;21.00;89.00
1075;DHT22;526;51.392;12.448;2023-05-06T15:05:56;21.00;87.70
1075;DHT22;526;51.392;12.448;2023-05-06T15:08:22;21.00;88.00
1075;DHT22;526;51.392;12.448;2023-05-06T15:10:47;21.10;87.80
1075;DHT22;526;51.392;12.448;2023-05-06T15:13:14;21.10;87.10
1075;DHT22;526;51.392;12.448;2023-05-06T15:15:39;21.20;87.90
1075;DHT22;526;51.392;12.448;2023-05-06T15:18:05;21.00;88.50
1075;DHT22;526;51.392;12.448;2023-05-06T15:20:31;20.50;89.50
1075;DHT22;526;51.392;12.448;2023-05-06T15:22:56;19.80;90.60
1075;DHT22;526;51.392;12.448;2023-05-06T15:25:22;19.40;91.10
1075;DHT22;526;51.392;12.448;2023-05-06T15:27:47;19.10;92.70
1075;DHT22;526;51.392;12.448;2023-05-06T15:30:13;18.80;93.20
1075;DHT22;526;51.392;12.448;2023-05-06T15:32:39;18.80;93.70
1075;DHT22;526;51.392;12.448;2023-05-06T15:35:04;18.90;93.70
1075;DHT22;526;51.392;12.448;2023-05-06T15:37:33;18.70;93.10
1075;DHT22;526;51.392;12.448;2023-05-06T15:39:59;18.60;93.90
1075;DHT22;526;51.392;12.448;2023-05-06T15:42:25;18.40;94.40
1075;DHT22;526;51.392;12.448;2023-05-06T15:44:51;18.60;94.30
1075;DHT22;526;51.392;12.448;2023-05-06T15:47:17;18.90;93.20
1075;DHT22;526;51.392;12.448;2023-05-06T15:49:43;19.30;92.80
1075;DHT22;526;51.392;12.448;2023-05-06T15:52:08;19.50;91.60
1075;DHT22;526;51.392;12.448;2023-05-06T15:54:34;19.60;91.10
1075;DHT22;526;51.392;12.448;2023-05-06T15:57:02;19.60;90.40
1075;DHT22;526;51.392;12.448;2023-05-06T15:59:31;19.50;90.70
1075;DHT22;526;51.392;12.448;2023-05-06T16:01:56;19.30;91.10
1075;DHT22;526;51.392;12.448;2023-05-06T16:04:22;19.30;91.40
1075;DHT22;526;51.392;12.448;2023-05-06T16:06:48;19.10;91.30